Startpagina
METAR-TAF:

METAR-TAF

Vliegvelden :

Bournemouth Airport

Bournemouth, Engeland

breedte: 50-47N, lengte: 001-50W, hoogte: 11 m

Actueel weer

Dit bericht is 11 minuten geleden gemaakt, om 12:50 UTC
Wind 9 kt uit het zuidzuidoosten, variërend tussen het oosten en het zuiden
Temperatuur 21°C
Vochtigheid 43%
Druk 1023 hPa
Zicht 10 km of meer
geen wolken onder 1500 m en geen cumulonimbus

METAR: EGHH 101250Z 15009KT 100V180 CAVOK 21/08 Q1023

Tijdstip: 14:01 (13:01 UTC)

Verwachting

Dit bericht is 2 uur en het 1 minuten geleden gemaakt, om 11:00 UTC
Verwachting geldig van 10 om 12 UTC tot 10 om 21 UTC
Wind 7 kt uit het zuidoosten
Zicht 10 km of meer
geen wolken onder 1500 m en geen cumulonimbus

TAF: EGHH 101100Z 1012/1021 13007KT CAVOK

Waarnemingen en weersverwachtingen van meer dan 4000 vliegvelden (METAR en TAF).

De beschikbare stations zijn de gele en rode punten op de kaart.

Ga met uw muis naar het station om de naam te zien.

Klik dan om waarnemingen en weersverwachtingen te zien.

kaart wijzigen: klik op de groene knoppen met een zwart kruis om in te zoomen, op de groene knop met een streepje om uit te zoomen of op de groene pijlen voor aangrenzende kaarten.


METAR-TAF: